Time;durP1;ratioP1;P1;durP2;ratioP2;P2;SDS_P1;SDS_P2;PMS_P1;PMS_P2;Temp;Humidity;BMP_temperature;BMP_pressure;BME280_temperature;BME280_humidity;BME280_pressure;Samples;Min_cycle;Max_cycle;Signal;HPM_P1;HPM_P2
2021/06/19 00:02:02;;;;;;;1.73;1.20;;;;;;;33.97;24.42;98327.22;5061946;28;20032;-82
2021/06/19 00:04:32;;;;;;;1.95;1.00;;;;;;;33.98;24.52;98323.84;5063700;28;20119;-82
2021/06/19 00:06:58;;;;;;;2.88;1.05;;;;;;;34.20;23.99;98331.19;5053107;28;20041;-82
2021/06/19 00:09:25;;;;;;;1.48;1.00;;;;;;;34.39;24.14;98330.41;5056226;28;20051;-82
2021/06/19 00:11:51;;;;;;;2.00;1.38;;;;;;;34.30;24.35;98324.06;5055209;28;20392;-82
2021/06/19 00:14:18;;;;;;;1.65;1.13;;;;;;;33.86;24.88;98329.91;5053065;28;20127;-82
2021/06/19 00:16:44;;;;;;;1.20;1.10;;;;;;;33.47;25.56;98322.78;5052694;28;20031;-82
2021/06/19 00:19:10;;;;;;;1.63;0.98;;;;;;;33.47;24.61;98328.50;5059230;28;20067;-82
2021/06/19 00:21:36;;;;;;;1.55;1.13;;;;;;;33.57;24.56;98319.34;5056912;28;20032;-82
2021/06/19 00:24:03;;;;;;;2.63;1.13;;;;;;;33.73;24.56;98321.69;5058079;28;20519;-83
2021/06/19 00:26:29;;;;;;;2.00;1.30;;;;;;;33.63;24.92;98319.47;5052325;28;20037;-82
2021/06/19 00:28:55;;;;;;;1.60;1.50;;;;;;;33.53;25.30;98320.84;5052592;28;20109;-82
2021/06/19 00:31:21;;;;;;;2.13;1.60;;;;;;;33.21;26.29;98317.69;5060379;28;20445;-82
2021/06/19 00:33:47;;;;;;;1.70;1.30;;;;;;;32.99;26.54;98325.03;5061023;28;20405;-83
2021/06/19 00:36:13;;;;;;;1.60;1.20;;;;;;;32.89;26.24;98318.63;5058149;28;20025;-82
2021/06/19 00:38:39;;;;;;;1.20;1.13;;;;;;;32.73;26.37;98321.94;5057496;28;20378;-82
2021/06/19 00:41:05;;;;;;;1.35;1.20;;;;;;;32.62;26.66;98318.91;5059901;28;20438;-83
2021/06/19 00:43:32;;;;;;;1.92;1.48;;;;;;;32.74;27.03;98317.84;5060461;28;20068;-82
2021/06/19 00:45:59;;;;;;;2.70;1.27;;;;;;;32.87;26.42;98318.34;5054606;28;20078;-82
2021/06/19 00:48:27;;;;;;;1.83;1.27;;;;;;;33.17;26.09;98304.94;5060220;28;20481;-82
2021/06/19 00:50:53;;;;;;;3.97;1.17;;;;;;;33.36;26.00;98309.94;5063238;28;20567;-82
2021/06/19 00:53:19;;;;;;;2.45;1.40;;;;;;;33.60;25.27;98311.88;5061400;28;20025;-82
2021/06/19 00:55:45;;;;;;;1.38;1.25;;;;;;;33.59;25.53;98310.31;5053334;28;20059;-82
2021/06/19 00:58:12;;;;;;;1.20;1.10;;;;;;;33.66;24.56;98310.69;5064577;28;20029;-82
2021/06/19 01:00:38;;;;;;;1.45;1.20;;;;;;;33.73;25.04;98318.03;5063924;28;20108;-82
2021/06/19 01:03:05;;;;;;;2.22;1.38;;;;;;;33.47;25.78;98308.56;5061579;28;20033;-82
2021/06/19 01:05:31;;;;;;;1.67;1.40;;;;;;;33.44;25.02;98310.31;5056608;28;20044;-82
2021/06/19 01:07:59;;;;;;;1.45;1.35;;;;;;;33.42;25.54;98307.94;5065098;28;20476;-82
2021/06/19 01:10:27;;;;;;;1.27;1.17;;;;;;;33.39;25.07;98306.09;5059107;28;20029;-82
2021/06/19 01:12:53;;;;;;;2.53;1.30;;;;;;;33.25;25.83;98309.75;5061741;28;20100;-82
2021/06/19 01:15:20;;;;;;;1.90;1.77;;;;;;;33.13;25.73;98304.34;5063810;28;20045;-82
2021/06/19 01:17:46;;;;;;;2.03;1.65;;;;;;;32.85;26.29;98306.66;5065283;28;20024;-82
2021/06/19 01:20:15;;;;;;;1.58;1.48;;;;;;;32.09;27.46;98307.44;5060956;28;20052;-82
2021/06/19 01:22:45;;;;;;;2.05;0.90;;;;;;;31.49;28.82;98309.59;5059718;28;20112;-81
2021/06/19 01:25:17;;;;;;;6.28;1.60;;;;;;;31.35;28.78;98308.22;5060184;28;20115;-81
2021/06/19 01:27:44;;;;;;;2.33;1.88;;;;;;;31.68;28.60;98299.75;5057212;28;20064;-82
2021/06/19 01:30:10;;;;;;;3.38;1.73;;;;;;;31.72;28.87;98303.97;5060295;28;20075;-81
2021/06/19 01:32:39;;;;;;;2.38;1.58;;;;;;;31.82;28.03;98305.50;5058693;28;20029;-81
2021/06/19 01:35:06;;;;;;;2.80;1.48;;;;;;;31.84;28.41;98308.66;5061926;28;20037;-81
2021/06/19 01:37:32;;;;;;;2.20;1.70;;;;;;;32.01;28.16;98297.69;5059380;28;20029;-81
2021/06/19 01:40:19;;;;;;;2.40;1.63;;;;;;;32.39;27.21;98296.94;5060868;28;20503;-81
2021/06/19 01:42:48;;;;;;;2.47;1.60;;;;;;;32.82;26.37;98287.72;5057809;28;20036;-81
2021/06/19 01:45:26;;;;;;;2.03;1.20;;;;;;;33.26;25.86;98290.59;5091337;28;20061;-81
2021/06/19 01:47:53;;;;;;;2.53;1.35;;;;;;;33.54;25.34;98288.25;5056432;28;20037;-82
2021/06/19 01:50:22;;;;;;;2.78;1.90;;;;;;;33.41;26.00;98291.38;5060788;28;20116;-82
2021/06/19 01:52:49;;;;;;;8.52;1.70;;;;;;;33.08;26.32;98296.50;5059421;28;20036;-82
2021/06/19 01:55:15;;;;;;;2.70;1.60;;;;;;;33.04;26.12;98301.59;5058831;28;20036;-81
2021/06/19 01:57:42;;;;;;;1.65;1.55;;;;;;;33.16;25.75;98303.38;5060106;28;20025;-81
2021/06/19 02:00:14;;;;;;;1.38;1.20;;;;;;;33.29;25.41;98301.78;5066203;28;20503;-82
2021/06/19 02:02:41;;;;;;;2.08;1.75;;;;;;;33.48;25.70;98298.72;5063998;28;20039;-82
2021/06/19 02:05:12;;;;;;;1.70;1.30;;;;;;;33.44;24.98;98296.84;5055819;28;20435;-81
2021/06/19 02:07:56;;;;;;;1.77;1.45;;;;;;;33.54;25.11;98296.78;5060478;28;20381;-81
2021/06/19 02:10:32;;;;;;;4.88;1.30;;;;;;;33.55;25.60;98299.13;5055397;28;20046;-81
2021/06/19 02:12:59;;;;;;;1.55;1.45;;;;;;;32.97;25.76;98296.28;5063314;28;20032;-81
2021/06/19 02:15:26;;;;;;;2.80;1.70;;;;;;;32.98;25.58;98289.31;5063414;28;20040;-81
2021/06/19 02:17:54;;;;;;;2.63;1.17;;;;;;;33.33;25.28;98293.03;5060317;28;20393;-81
2021/06/19 02:20:21;;;;;;;2.10;1.42;;;;;;;33.30;25.85;98291.97;5061725;28;20036;-81
2021/06/19 02:22:48;;;;;;;1.65;1.42;;;;;;;33.11;25.83;98290.63;5067277;28;20040;-83
2021/06/19 02:25:18;;;;;;;1.30;1.20;;;;;;;32.95;25.53;98288.25;5057515;28;20044;-84
2021/06/19 02:27:59;;;;;;;3.53;1.40;;;;;;;33.06;25.63;98285.63;5059548;28;20040;-83
2021/06/19 02:30:28;;;;;;;5.33;1.70;;;;;;;32.75;26.37;98280.38;5056731;28;20025;-84
2021/06/19 02:32:55;;;;;;;1.90;1.70;;;;;;;32.30;26.90;98282.81;5056868;28;20028;-84
2021/06/19 02:35:23;;;;;;;4.03;1.80;;;;;;;32.11;27.45;98287.06;5056795;28;20033;-84
2021/06/19 02:37:50;;;;;;;2.00;1.48;;;;;;;32.13;27.69;98291.00;5055540;28;20089;-84
2021/06/19 02:40:16;;;;;;;3.88;1.77;;;;;;;32.25;27.53;98289.97;5067554;28;20028;-84
2021/06/19 02:42:43;;;;;;;3.70;1.65;;;;;;;32.32;27.59;98298.13;5063958;28;20120;-81
2021/06/19 02:45:11;;;;;;;1.77;1.65;;;;;;;32.38;27.29;98301.06;5056319;28;20021;-81
2021/06/19 02:47:42;;;;;;;2.75;2.10;;;;;;;32.42;27.20;98305.28;5063536;28;20090;-81
2021/06/19 02:50:09;;;;;;;2.60;1.67;;;;;;;32.41;27.25;98300.88;5060363;28;20116;-81
2021/06/19 02:52:41;;;;;;;1.60;1.50;;;;;;;32.61;26.86;98298.19;5059496;28;20083;-81
2021/06/19 02:55:09;;;;;;;1.48;1.38;;;;;;;33.00;25.86;98298.91;5055414;28;20124;-81
2021/06/19 02:57:35;;;;;;;2.63;1.55;;;;;;;33.35;25.31;98302.66;5064440;28;20037;-81
2021/06/19 03:00:03;;;;;;;1.33;1.23;;;;;;;33.69;24.75;98297.53;5058300;28;20053;-84
2021/06/19 03:02:29;;;;;;;1.35;1.20;;;;;;;33.99;24.55;98296.16;5055950;28;20029;-84
2021/06/19 03:04:55;;;;;;;2.47;1.40;;;;;;;34.13;24.42;98306.75;5062387;28;20064;-84
2021/06/19 03:07:21;;;;;;;2.38;1.50;;;;;;;33.98;24.64;98306.75;5064548;28;20033;-84
2021/06/19 03:09:47;;;;;;;5.53;1.25;;;;;;;33.86;24.89;98293.66;5056418;28;20040;-84
2021/06/19 03:12:13;;;;;;;1.73;1.33;;;;;;;33.96;24.46;98299.97;5057167;28;20033;-83
2021/06/19 03:14:40;;;;;;;1.30;1.20;;;;;;;34.03;25.01;98311.00;5057647;28;20044;-84
2021/06/19 03:17:06;;;;;;;3.22;2.50;;;;;;;33.75;25.38;98302.03;5061723;28;20071;-83
2021/06/19 03:19:32;;;;;;;1.83;1.58;;;;;;;33.77;25.83;98310.09;5061126;28;20037;-84
2021/06/19 03:22:00;;;;;;;2.95;2.10;;;;;;;33.52;25.74;98322.06;5054651;28;20261;-84
2021/06/19 03:24:27;;;;;;;2.65;1.48;;;;;;;33.43;25.80;98312.38;5061380;28;20032;-83
2021/06/19 03:26:54;;;;;;;1.63;1.52;;;;;;;33.74;25.42;98322.47;5058226;28;20029;-84
2021/06/19 03:29:21;;;;;;;3.17;1.95;;;;;;;33.77;25.81;98319.41;5055554;28;20408;-84
2021/06/19 03:31:47;;;;;;;3.40;1.80;;;;;;;33.70;26.16;98316.19;5064784;28;20040;-84
2021/06/19 03:34:13;;;;;;;6.57;2.22;;;;;;;33.60;26.41;98301.28;5061181;28;20112;-84
2021/06/19 03:36:39;;;;;;;3.28;1.88;;;;;;;33.98;25.97;98318.16;5054291;28;20042;-83
2021/06/19 03:39:05;;;;;;;5.13;2.45;;;;;;;34.42;26.09;98309.47;5053906;28;20033;-84
2021/06/19 03:41:32;;;;;;;2.17;1.95;;;;;;;34.52;26.43;98316.59;5066462;28;20064;-83
2021/06/19 03:43:58;;;;;;;3.65;2.33;;;;;;;34.62;26.40;98315.16;5068080;28;20512;-84
2021/06/19 03:46:24;;;;;;;2.35;2.10;;;;;;;34.57;25.74;98318.72;5069269;28;20047;-82
2021/06/19 03:48:50;;;;;;;2.22;1.90;;;;;;;34.50;25.66;98322.00;5063896;28;20108;-81
2021/06/19 03:51:16;;;;;;;5.03;1.95;;;;;;;34.69;25.44;98329.00;5057664;28;20577;-81
2021/06/19 03:53:42;;;;;;;2.13;1.92;;;;;;;34.85;25.60;98332.53;5053753;28;20508;-81
2021/06/19 03:56:08;;;;;;;2.63;2.00;;;;;;;34.91;26.14;98333.38;5057282;28;20032;-82
2021/06/19 03:58:34;;;;;;;5.90;1.42;;;;;;;35.52;24.88;98340.53;5061892;28;20107;-80
2021/06/19 04:01:00;;;;;;;3.13;1.83;;;;;;;35.79;24.94;98337.09;5053713;28;20033;-82
2021/06/19 04:03:26;;;;;;;2.00;1.67;;;;;;;35.56;25.10;98326.00;5091545;28;20041;-81
2021/06/19 04:05:52;;;;;;;3.53;1.67;;;;;;;35.09;25.42;98319.59;5063419;28;20085;-81
2021/06/19 04:08:18;;;;;;;1.67;1.25;;;;;;;35.66;24.98;98322.41;5062300;28;20473;-82
2021/06/19 04:10:44;;;;;;;2.33;1.75;;;;;;;36.29;24.17;98325.19;5060028;28;20025;-82
2021/06/19 04:13:10;;;;;;;2.75;1.65;;;;;;;36.54;24.23;98322.22;5064324;28;20045;-82
2021/06/19 04:15:36;;;;;;;2.70;1.83;;;;;;;36.69;23.86;98322.78;5063164;28;20389;-82
2021/06/19 04:18:03;;;;;;;1.50;1.35;;;;;;;37.08;23.39;98320.06;5063248;28;20102;-82
2021/06/19 04:20:29;;;;;;;1.15;1.10;;;;;;;36.90;23.45;98320.50;5057657;28;20025;-82
2021/06/19 04:22:55;;;;;;;1.23;1.13;;;;;;;37.07;23.77;98312.75;5058545;28;20037;-82
2021/06/19 04:25:21;;;;;;;1.63;1.52;;;;;;;37.17;23.22;98308.34;5062683;28;20067;-82
2021/06/19 04:27:50;;;;;;;2.20;1.00;;;;;;;37.29;23.35;98315.66;5053345;28;20052;-82
2021/06/19 04:30:18;;;;;;;2.67;1.20;;;;;;;37.60;23.58;98308.88;5053562;28;20034;-82
2021/06/19 04:32:44;;;;;;;1.23;1.13;;;;;;;37.98;23.37;98313.03;5057497;28;20036;-82
2021/06/19 04:35:13;;;;;;;1.52;1.42;;;;;;;37.80;22.28;98310.69;5054226;28;20040;-82
2021/06/19 04:37:39;;;;;;;1.33;1.20;;;;;;;37.41;23.42;98307.88;5059935;28;20025;-82
2021/06/19 04:40:15;;;;;;;1.60;1.50;;;;;;;37.05;23.82;98306.75;5054854;28;20021;-82
2021/06/19 04:42:45;;;;;;;1.88;1.63;;;;;;;36.47;24.31;98305.53;5053714;28;20094;-82
2021/06/19 04:45:13;;;;;;;1.30;1.20;;;;;;;36.46;24.98;98303.97;5056420;28;20392;-82
2021/06/19 04:47:40;;;;;;;1.60;1.50;;;;;;;36.04;24.82;98306.84;5062289;28;20127;-82
2021/06/19 04:50:09;;;;;;;1.92;1.35;;;;;;;36.18;25.04;98302.25;5057250;28;20183;-82
2021/06/19 04:52:40;;;;;;;1.52;1.30;;;;;;;36.45;24.57;98298.78;5059788;28;20036;-82
2021/06/19 04:55:09;;;;;;;1.02;0.75;;;;;;;36.92;24.83;98309.34;5054592;28;20412;-83
2021/06/19 04:57:35;;;;;;;0.80;0.80;;;;;;;37.33;24.12;98298.97;5057302;28;20035;-83
2021/06/19 05:00:01;;;;;;;2.33;1.40;;;;;;;36.81;24.19;98289.25;5068939;28;20089;-83
2021/06/19 05:02:27;;;;;;;1.25;1.13;;;;;;;36.78;24.59;98290.31;5058247;28;20472;-83
2021/06/19 05:04:53;;;;;;;1.27;1.17;;;;;;;36.90;24.61;98289.00;5056767;28;20037;-83
2021/06/19 05:07:20;;;;;;;0.90;0.80;;;;;;;37.02;25.01;98290.63;5058140;28;20036;-83
2021/06/19 05:09:46;;;;;;;0.85;0.80;;;;;;;37.41;24.10;98292.75;5057033;28;20083;-83
2021/06/19 05:12:12;;;;;;;2.03;1.20;;;;;;;37.77;23.44;98300.25;5056118;28;20492;-82
2021/06/19 05:14:39;;;;;;;0.90;0.90;;;;;;;38.38;22.42;98303.03;5055393;28;20123;-83
2021/06/19 05:17:05;;;;;;;1.30;1.00;;;;;;;38.53;22.79;98297.75;5055360;28;20048;-83
2021/06/19 05:19:32;;;;;;;1.95;1.27;;;;;;;38.65;22.78;98300.03;5060195;28;20114;-83
2021/06/19 05:22:01;;;;;;;1.00;0.95;;;;;;;38.63;22.65;98302.66;5067121;28;20037;-83
2021/06/19 05:24:27;;;;;;;3.22;1.02;;;;;;;38.97;22.69;98293.88;5067087;28;20034;-83
2021/06/19 05:26:53;;;;;;;1.35;0.77;;;;;;;39.08;22.17;98305.28;5067198;28;20122;-83
2021/06/19 05:29:20;;;;;;;0.63;0.63;;;;;;;38.99;22.25;98297.78;5063961;28;20487;-83
2021/06/19 05:31:46;;;;;;;0.77;0.77;;;;;;;39.14;22.57;98308.91;5060400;28;20041;-83
2021/06/19 05:34:13;;;;;;;1.15;1.05;;;;;;;38.72;22.38;98315.94;5060882;28;20033;-83
2021/06/19 05:36:39;;;;;;;1.30;0.80;;;;;;;39.06;23.28;98300.06;5058690;28;20033;-82
2021/06/19 05:39:05;;;;;;;0.68;0.60;;;;;;;39.06;22.60;98302.94;5060857;28;20025;-82
2021/06/19 05:41:31;;;;;;;0.80;0.80;;;;;;;39.42;22.09;98309.47;5061538;28;20033;-82
2021/06/19 05:43:58;;;;;;;0.55;0.55;;;;;;;39.41;22.28;98299.31;5061115;28;20051;-84
2021/06/19 05:46:24;;;;;;;0.55;0.55;;;;;;;40.01;21.79;98300.09;5059490;28;20036;-85
2021/06/19 05:48:56;;;;;;;0.75;0.70;;;;;;;39.99;20.86;98294.84;5051216;28;20037;-86
2021/06/19 05:51:22;;;;;;;1.00;0.60;;;;;;;39.66;21.82;98297.28;5063123;28;20112;-85
2021/06/19 05:53:48;;;;;;;0.60;0.60;;;;;;;40.00;21.01;98296.41;5068035;28;20036;-83
2021/06/19 05:56:14;;;;;;;2.05;1.00;;;;;;;39.45;21.88;98304.75;5055209;28;20070;-83
2021/06/19 05:58:40;;;;;;;0.77;0.77;;;;;;;38.82;22.79;98304.91;5064428;28;20031;-82
2021/06/19 06:01:06;;;;;;;0.68;0.68;;;;;;;38.84;22.35;98305.19;5058222;28;20076;-82
2021/06/19 06:03:32;;;;;;;2.35;0.85;;;;;;;39.19;23.04;98306.00;5061284;28;20021;-83
2021/06/19 06:05:58;;;;;;;0.60;0.60;;;;;;;39.35;22.14;98307.97;5067252;28;20068;-83
2021/06/19 06:08:24;;;;;;;0.55;0.55;;;;;;;39.58;22.54;98310.66;5059850;28;20147;-83
2021/06/19 06:10:50;;;;;;;0.70;0.68;;;;;;;39.70;22.37;98315.03;5058783;28;20160;-82
2021/06/19 06:13:16;;;;;;;0.70;0.70;;;;;;;39.92;22.52;98309.06;5071925;28;20027;-82
2021/06/19 06:15:42;;;;;;;0.82;0.82;;;;;;;40.36;21.38;98311.47;5066429;28;20071;-83
2021/06/19 06:18:08;;;;;;;0.70;0.70;;;;;;;40.34;21.24;98301.81;5063546;28;20068;-83
2021/06/19 06:20:34;;;;;;;1.08;0.82;;;;;;;40.11;21.44;98300.50;5067285;28;20039;-82
2021/06/19 06:23:00;;;;;;;1.20;1.10;;;;;;;40.26;20.96;98295.13;5070845;28;20033;-83
2021/06/19 06:25:27;;;;;;;1.08;0.90;;;;;;;40.00;21.92;98302.16;5068430;28;20523;-82
2021/06/19 06:27:53;;;;;;;1.35;0.90;;;;;;;39.46;22.76;98298.50;5065004;28;20049;-83
2021/06/19 06:30:19;;;;;;;0.60;0.60;;;;;;;39.19;22.55;98303.13;5060900;28;20037;-82
2021/06/19 06:32:45;;;;;;;1.60;0.85;;;;;;;39.80;21.44;98305.50;5056236;28;20025;-82
2021/06/19 06:35:12;;;;;;;0.70;0.70;;;;;;;40.36;22.03;98305.69;5058623;28;20119;-83
2021/06/19 06:37:39;;;;;;;0.80;0.80;;;;;;;40.59;20.79;98303.34;5063223;28;20043;-83
2021/06/19 06:40:08;;;;;;;1.90;0.80;;;;;;;40.84;20.29;98310.59;5058192;28;20024;-84
2021/06/19 06:42:34;;;;;;;0.70;0.70;;;;;;;40.39;21.55;98300.97;5053908;28;20052;-85
2021/06/19 06:45:00;;;;;;;3.13;0.80;;;;;;;40.20;22.13;98305.91;5061821;28;20108;-87
2021/06/19 06:47:26;;;;;;;1.02;0.90;;;;;;;39.52;20.79;98302.09;5060489;28;20029;-85
2021/06/19 06:49:52;;;;;;;0.77;0.75;;;;;;;39.46;21.13;98297.69;5060261;28;20041;-84
2021/06/19 06:52:19;;;;;;;1.33;0.75;;;;;;;39.48;20.78;98304.47;5067188;28;20030;-83
2021/06/19 06:54:45;;;;;;;0.98;0.98;;;;;;;38.39;21.69;98304.59;5053692;28;20053;-83
2021/06/19 06:57:11;;;;;;;0.60;0.60;;;;;;;38.12;22.41;98314.03;5062552;28;20051;-83
2021/06/19 06:59:37;;;;;;;1.85;0.90;;;;;;;37.70;23.42;98301.59;5054624;28;20033;-83
2021/06/19 07:02:07;;;;;;;1.52;1.00;;;;;;;37.34;22.59;98309.13;5062124;28;20032;-84
2021/06/19 07:04:33;;;;;;;1.00;0.80;;;;;;;37.47;23.22;98302.91;5058395;28;20052;-86
2021/06/19 07:06:59;;;;;;;0.60;0.60;;;;;;;37.39;22.47;98322.69;5061557;28;20098;-87
2021/06/19 07:09:25;;;;;;;0.77;0.77;;;;;;;37.70;22.77;98315.13;5059050;28;20104;-85
2021/06/19 07:11:51;;;;;;;0.80;0.80;;;;;;;37.58;23.79;98311.50;5058405;28;20060;-85
2021/06/19 07:14:17;;;;;;;1.00;0.90;;;;;;;36.85;23.58;98314.75;5060751;28;20028;-85
2021/06/19 07:16:43;;;;;;;1.35;1.25;;;;;;;37.23;23.95;98314.84;5055457;28;20044;-85
2021/06/19 07:19:09;;;;;;;0.98;0.90;;;;;;;37.05;23.30;98321.09;5058460;28;20487;-83
2021/06/19 07:21:35;;;;;;;0.93;0.85;;;;;;;37.38;22.36;98308.91;5060879;28;20451;-84
2021/06/19 07:24:01;;;;;;;0.70;0.70;;;;;;;38.40;21.65;98311.88;5061198;28;20032;-84
2021/06/19 07:26:28;;;;;;;2.38;0.98;;;;;;;38.93;20.98;98307.75;5059758;28;20029;-82
2021/06/19 07:28:54;;;;;;;1.15;0.80;;;;;;;38.92;21.54;98311.91;5061622;28;20072;-81
2021/06/19 07:31:20;;;;;;;6.32;0.75;;;;;;;39.11;22.21;98307.09;5059508;28;20024;-81
2021/06/19 07:33:46;;;;;;;0.70;0.70;;;;;;;38.38;22.92;98303.03;5053937;28;20037;-82
2021/06/19 07:36:12;;;;;;;2.47;0.95;;;;;;;37.95;23.21;98317.72;5054024;28;20048;-82
2021/06/19 07:38:38;;;;;;;1.80;0.98;;;;;;;37.38;26.70;98315.41;5052857;28;20029;-81
2021/06/19 07:41:04;;;;;;;1.20;1.10;;;;;;;36.08;26.33;98316.75;5059397;28;20029;-83
2021/06/19 07:43:30;;;;;;;1.10;0.70;;;;;;;36.44;29.68;98306.53;5062093;28;20147;-83
2021/06/19 07:45:57;;;;;;;2.10;0.90;;;;;;;36.67;26.05;98310.28;5061313;28;20127;-83
2021/06/19 07:48:23;;;;;;;2.08;0.93;;;;;;;36.52;26.37;98304.78;5063172;28;20060;-84
2021/06/19 07:50:49;;;;;;;1.77;0.93;;;;;;;36.91;26.25;98307.78;5058391;28;20039;-82
2021/06/19 07:53:15;;;;;;;2.30;0.93;;;;;;;37.02;27.39;98307.00;5064512;28;20068;-84
2021/06/19 07:55:41;;;;;;;1.23;1.13;;;;;;;36.30;25.41;98307.50;5062490;28;20024;-83
2021/06/19 07:58:07;;;;;;;1.98;1.30;;;;;;;36.73;25.13;98303.28;5060052;28;20044;-84
2021/06/19 08:00:34;;;;;;;1.20;1.10;;;;;;;37.05;26.44;98298.19;5069626;28;20040;-81
2021/06/19 08:03:00;;;;;;;1.52;1.42;;;;;;;36.92;25.46;98306.50;5056591;28;20485;-82
2021/06/19 08:05:28;;;;;;;1.15;1.10;;;;;;;37.05;26.92;98303.91;5054876;28;20021;-83
2021/06/19 08:07:55;;;;;;;2.40;1.15;;;;;;;36.17;27.23;98304.34;5054928;28;20484;-82
2021/06/19 08:10:21;;;;;;;3.15;1.40;;;;;;;36.07;27.16;98300.13;5059448;28;20576;-82
2021/06/19 08:12:49;;;;;;;1.05;1.05;;;;;;;36.68;25.44;98294.69;5064146;28;20115;-82
2021/06/19 08:15:15;;;;;;;1.63;1.52;;;;;;;36.43;25.44;98304.19;5065626;28;20039;-83
2021/06/19 08:17:41;;;;;;;1.52;1.42;;;;;;;36.99;26.00;98303.13;5068153;28;20047;-85
2021/06/19 08:20:08;;;;;;;4.00;1.15;;;;;;;37.46;25.70;98292.75;5058546;28;20493;-85
2021/06/19 08:22:34;;;;;;;1.05;0.95;;;;;;;37.85;25.63;98290.66;5065873;28;20086;-85
2021/06/19 08:25:04;;;;;;;4.43;1.38;;;;;;;36.27;25.84;98299.19;5059543;28;20067;-84
2021/06/19 08:27:31;;;;;;;3.90;1.30;;;;;;;36.20;25.87;98291.09;5062301;28;20059;-83
2021/06/19 08:29:57;;;;;;;1.30;1.20;;;;;;;36.90;25.52;98286.13;5068988;28;20032;-82
2021/06/19 08:32:24;;;;;;;4.80;1.15;;;;;;;37.94;25.27;98286.72;5057449;28;20550;-86
2021/06/19 08:34:50;;;;;;;2.08;1.48;;;;;;;38.42;24.67;98286.31;5067047;28;20045;-83
2021/06/19 08:37:16;;;;;;;3.05;1.23;;;;;;;38.90;24.42;98283.75;5064152;28;20040;-83
2021/06/19 08:39:43;;;;;;;2.80;1.40;;;;;;;38.01;23.41;98281.22;5063460;28;20060;-83
2021/06/19 08:42:09;;;;;;;2.15;1.15;;;;;;;38.59;24.35;98273.44;5066643;28;20396;-84
2021/06/19 08:44:36;;;;;;;3.15;1.48;;;;;;;38.08;25.17;98279.13;5066134;28;20039;-85
2021/06/19 08:47:03;;;;;;;1.40;1.00;;;;;;;37.15;26.19;98279.44;5057754;28;20128;-84
2021/06/19 08:49:29;;;;;;;1.58;0.93;;;;;;;37.71;24.43;98273.72;5062047;28;20400;-82
2021/06/19 08:51:58;;;;;;;1.85;0.90;;;;;;;38.35;24.19;98264.69;5059062;28;20029;-82
2021/06/19 08:54:25;;;;;;;1.10;0.90;;;;;;;37.17;25.87;98281.78;5058949;28;20041;-83
2021/06/19 08:56:51;;;;;;;1.55;1.08;;;;;;;36.76;27.12;98272.06;5061837;28;20033;-84
2021/06/19 08:59:18;;;;;;;3.38;1.00;;;;;;;36.19;26.33;98278.09;5058439;28;20028;-85
2021/06/19 09:01:44;;;;;;;1.33;1.05;;;;;;;36.97;25.86;98268.47;5059008;28;20108;-84
2021/06/19 09:04:12;;;;;;;2.63;0.80;;;;;;;37.39;23.53;98262.53;5058219;28;20040;-83
2021/06/19 09:06:44;;;;;;;0.73;0.73;;;;;;;37.26;24.59;98267.19;5062148;28;20108;-83
2021/06/19 09:09:14;;;;;;;1.52;0.80;;;;;;;37.38;24.99;98263.06;5063686;28;20045;-84
2021/06/19 09:11:48;;;;;;;0.73;0.70;;;;;;;37.94;24.96;98266.66;5060260;28;20021;-83
2021/06/19 09:14:28;;;;;;;2.85;0.98;;;;;;;38.20;24.89;98267.09;5064596;28;20404;-81
2021/06/19 09:17:05;;;;;;;0.70;0.70;;;;;;;37.48;23.94;98263.59;5059734;28;20488;-81
2021/06/19 09:19:40;;;;;;;1.10;0.95;;;;;;;37.50;24.46;98263.84;5061162;28;20492;-82
2021/06/19 09:22:17;;;;;;;0.80;0.80;;;;;;;37.70;23.45;98255.72;5059045;28;20400;-83
2021/06/19 09:24:55;;;;;;;0.60;0.60;;;;;;;37.72;24.76;98255.97;5059137;28;20547;-82
2021/06/19 09:27:30;;;;;;;0.70;0.50;;;;;;;37.78;23.07;98264.56;5060145;28;20049;-83
2021/06/19 09:30:09;;;;;;;0.98;0.85;;;;;;;36.88;24.57;98262.97;5064364;28;20064;-83
2021/06/19 09:33:00;;;;;;;1.25;0.80;;;;;;;36.38;24.63;98265.69;5066791;28;20616;-83
2021/06/19 09:35:38;;;;;;;0.60;0.60;;;;;;;37.80;25.88;98261.97;5062584;28;20401;-83
2021/06/19 09:38:14;;;;;;;0.73;0.70;;;;;;;38.81;23.33;98260.31;5064333;28;20028;-82
2021/06/19 09:40:41;;;;;;;1.23;0.70;;;;;;;38.10;23.40;98262.16;5068054;28;20033;-83
2021/06/19 09:43:26;;;;;;;0.68;0.68;;;;;;;38.37;24.12;98259.19;5058609;28;20029;-83
2021/06/19 09:46:08;;;;;;;1.50;0.90;;;;;;;37.95;24.07;98254.63;5059555;28;20417;-83
2021/06/19 09:48:38;;;;;;;0.80;0.80;;;;;;;37.61;24.11;98258.09;5056329;28;20090;-84
2021/06/19 09:51:13;;;;;;;1.05;0.90;;;;;;;38.42;22.81;98257.59;5058663;28;20036;-84
2021/06/19 09:53:41;;;;;;;0.60;0.60;;;;;;;38.21;23.75;98254.28;5059266;28;20071;-81
2021/06/19 09:56:10;;;;;;;0.80;0.80;;;;;;;38.43;23.21;98254.22;5064242;28;20411;-81
2021/06/19 09:58:47;;;;;;;0.80;0.80;;;;;;;37.96;22.23;98247.63;5067055;28;20120;-81
2021/06/19 10:01:33;;;;;;;0.80;0.80;;;;;;;37.32;24.11;98245.84;5064131;28;20408;-82
2021/06/19 10:03:59;;;;;;;0.80;0.80;;;;;;;38.43;22.53;98253.44;5058005;28;20063;-81
2021/06/19 10:06:27;;;;;;;2.88;0.80;;;;;;;38.36;22.44;98239.66;5060635;28;20496;-81
2021/06/19 10:08:55;;;;;;;1.02;0.82;;;;;;;38.89;22.09;98238.31;5067397;28;20033;-81
2021/06/19 10:11:26;;;;;;;1.27;1.10;;;;;;;38.24;22.79;98250.38;5066318;28;20052;-80
2021/06/19 10:13:55;;;;;;;1.08;0.90;;;;;;;38.32;23.41;98244.91;5065374;28;20618;-80
2021/06/19 10:16:24;;;;;;;1.30;0.88;;;;;;;37.89;23.53;98245.28;5071017;28;20082;-84
2021/06/19 10:18:52;;;;;;;0.90;0.90;;;;;;;37.61;23.61;98241.69;5071149;28;20096;-84
2021/06/19 10:21:20;;;;;;;0.80;0.75;;;;;;;38.90;23.06;98245.63;5064956;28;20036;-85
2021/06/19 10:23:47;;;;;;;0.60;0.60;;;;;;;39.78;21.97;98244.88;5071327;28;20024;-83
2021/06/19 10:26:13;;;;;;;0.70;0.70;;;;;;;39.49;21.62;98245.66;5072797;28;20126;-82
2021/06/19 10:28:46;;;;;;;0.85;0.82;;;;;;;39.17;22.32;98245.44;5064266;28;20094;-83
2021/06/19 10:31:14;;;;;;;0.77;0.65;;;;;;;39.30;22.50;98236.94;5064763;28;20058;-83
2021/06/19 10:33:41;;;;;;;0.88;0.88;;;;;;;38.83;23.00;98235.50;5066281;28;20068;-84
2021/06/19 10:36:09;;;;;;;0.60;0.60;;;;;;;39.71;22.04;98245.47;5064600;28;20041;-82
2021/06/19 10:38:48;;;;;;;1.02;0.80;;;;;;;40.16;20.63;98250.75;5067694;28;20088;-82
2021/06/19 10:41:15;;;;;;;1.45;0.90;;;;;;;39.72;21.37;98243.38;5071085;28;20032;-81
2021/06/19 10:43:51;;;;;;;1.50;0.80;;;;;;;39.12;22.64;98236.81;5069968;28;20032;-82
2021/06/19 10:46:35;;;;;;;2.55;0.70;;;;;;;38.17;24.27;98236.59;5069606;28;20033;-82
2021/06/19 10:49:23;;;;;;;1.08;0.80;;;;;;;38.39;23.16;98230.78;5054077;28;20041;-81
2021/06/19 10:51:50;;;;;;;1.27;0.88;;;;;;;38.60;22.04;98220.47;5056231;28;20056;-81
2021/06/19 10:54:26;;;;;;;1.05;0.80;;;;;;;38.45;23.17;98211.44;5068824;28;20032;-81
2021/06/19 10:56:57;;;;;;;3.15;0.93;;;;;;;38.19;23.25;98215.97;5066372;28;20369;-81
2021/06/19 10:59:41;;;;;;;1.33;1.00;;;;;;;37.90;24.75;98212.44;5066073;28;20028;-81
2021/06/19 11:02:09;;;;;;;1.48;0.80;;;;;;;38.58;23.54;98205.09;5061759;28;20039;-82
2021/06/19 11:04:36;;;;;;;1.08;0.98;;;;;;;37.97;23.69;98200.41;5063857;28;20515;-83
2021/06/19 11:07:06;;;;;;;0.75;0.70;;;;;;;37.54;24.56;98207.03;5068607;28;20103;-82
2021/06/19 11:09:42;;;;;;;;;;;;;;;38.39;23.27;98199.22;5064502;28;20061;-83
2021/06/19 11:12:27;;;;;;;0.90;0.80;;;;;;;37.74;24.51;98192.41;5067626;28;19927;-84
2021/06/19 11:14:54;;;;;;;2.92;0.70;;;;;;;37.99;23.96;98189.22;5061242;28;20033;-81
2021/06/19 11:17:23;;;;;;;0.88;0.80;;;;;;;37.38;24.02;98177.91;5064315;28;20063;-81
2021/06/19 11:19:52;;;;;;;1.35;0.82;;;;;;;37.50;24.39;98180.75;5070319;28;20033;-81
2021/06/19 11:22:40;;;;;;;0.90;0.90;;;;;;;37.64;22.96;98185.41;5068456;28;20090;-81
2021/06/19 11:25:28;;;;;;;1.52;0.80;;;;;;;37.63;25.17;98176.00;5067317;28;20025;-82
2021/06/19 11:28:00;;;;;;;0.90;0.90;;;;;;;38.13;23.35;98177.94;5056141;28;20049;-82
2021/06/19 11:30:35;;;;;;;0.82;0.82;;;;;;;37.47;23.10;98164.59;5059983;28;20059;-82
2021/06/19 11:33:16;;;;;;;1.10;1.00;;;;;;;37.68;23.25;98180.16;5065463;28;20028;-81
2021/06/19 11:36:05;;;;;;;1.15;0.80;;;;;;;39.01;23.58;98168.78;5065386;28;20032;-81
2021/06/19 11:38:52;;;;;;;2.05;0.95;;;;;;;37.88;22.95;98171.28;5059625;28;20036;-82
2021/06/19 11:41:24;;;;;;;1.40;0.82;;;;;;;38.60;22.83;98165.16;5068641;28;20063;-81